Cheneyville, LA (71325)

8:52 PM CST on December 02, 2016 (GMT -0600)
Hessmer | | Change Station

Elev 92 ft 31.03 °N, 92.15 °W | Updated 28 seconds ago

Mostly Cloudy
Mostly Cloudy
51.6 °F
Feels Like 51.6 °F
N
0.0
Wind Variable Wind from SSW
Gusts 0.0 mph

Today
High -- | Low -- °F
--% Chance of Precip.
Yesterday
High -- | Low -- °F
Precip. -- in
Pressure 30.17 in
Visibility 10.0 miles
Clouds Few 8000 ft
Mostly Cloudy 11000 ft
Dew Point 50 °F
Humidity 94%
Rainfall 0.00 in
Snow Depth Not available.
6:50 AM 5:06 PM
Waxing Crescent, 12% visible
METAR KESF 030153Z AUTO 08004KT 10SM FEW080 BKN110 13/06 A3017 RMK AO2 RAB34E52 SLP216 P0000 T01280056
Pressure 30.17 in
Visibility 10.0 miles
Clouds Few 8000 ft
Mostly Cloudy 11000 ft
Dew Point 50 °F
Humidity 94%
Rainfall 0.00 in
Snow Depth Not available.
6:50 AM 5:06 PM
Waxing Crescent, 12% visible
METAR KESF 030153Z AUTO 08004KT 10SM FEW080 BKN110 13/06 A3017 RMK AO2 RAB34E52 SLP216 P0000 T01280056

10-Day Weather Forecast

Almanac

Astronomy

Dec. 02, 2016 Rise Set
Actual Time
Civil Twilight
Nautical Twilight
Astronomical Twilight
Moon
Length of Visible Light
Length of Day
Tomorrow will be .
, % of the Moon is Illuminated

Today's Extremes

State Highs State Lows

Community

WunderPhotos

Upload Photos

1,955,396 photos uploaded!

WunderBlog® & News

Nearby

Air Quality

  Air Quality AQ Index Pollutant
Not available.

Snow Depth

Station Depth Elevation

Earthquake Activity

City Distance Mag. Time & Date
Minimum magnitude displayed is 2.5.

Coastal Water Temperatures

Place Temperature

Stations

Nearby Weather Stations

Station Location Temp. Windchill Dew Point Humidity Wind Precip. Elev Updated Type
                   

Watches & Warnings

There are currently no watches in effect.